Terminal Aerodrome Forecast
Issued by NWS Cleveland, OH

Home | Current Version | Previous Version | Text Only | Print | Product List | Glossary On
Versions: 1 2 3 4 5 6 7 8 9 10 11 12 13 14 15 16 17 18 19 20 21 22 23 24 25
000
FTUS41 KCLE 290500
TAFERI
TAF
KERI 290540Z 2906/3006 32007KT P6SM BKN028 OVC040
      TEMPO 2906/2910 29006KT SCT028 BKN035
     FM291500 27010KT P6SM SCT035
     FM300200 21008KT P6SM VCSH BKN050=

USA.gov is the U.S. government's official web portal to all federal, state and local government web resources and services.